Tiempo atmosférico en la estación meteorológica de Najera, La Rioja (500 m.)



Fecha
DESCASC
Temp. máxima en grados centígrados (hora)
DESCASC
Temp. mínima en grados centígrados (hora)
DESCASC
Temp. media en grados centígrados
DESCASC
Racha de viento máxima en m/sg (hora)
DESCASC
Velocidad máxima media en intervalos de 10 minutos(hora)
DESCASC
Precipitaciones diarias en mm
DESCASC
Precipitaciones de 00:00 a 06:00 en mm
DESCASC
Precipitaciones de 06:00 a 12:00 en mm
DESCASC
Precipitaciones de 12:00 a 18:00 en mm
DESCASC
Precipitaciones de 18:00 a 24:00 en mm
DESCASC
22-01-2020 7.5 (16:40) 1.4 (08:30) 4.4 4.17 (00:20) 2.5 (00:20) 1.2 1.2 0 0 0
21-01-2020 2.6 (08:40) 0.4 (14:40) 1.5 6.67 (04:30) 3.33 (21:30) 12 0 1 10.8 0.2
20-01-2020 3.5 (13:20) 0.3 (08:50) 1.9 8.33 (05:20) 3.89 (05:20) 0 0 0 0 0
19-01-2020 7.2 (14:10) 2.4 (00:00) 4.8 13.33 (15:40) 5 (14:40) 3.8 3.6 0.2 0 0
18-01-2020 9.5 (15:20) 0.5 (00:00) 5 10.28 (19:50) 5.83 (15:00) 9 0 0 0.4 8.6
17-01-2020 12.2 (14:40) 1.5 (00:00) 6.8 13.33 (12:50) 6.11 (12:50) 0.4 0 0.2 0.2 0
16-01-2020 9.2 (14:50) -1.2 (-00:0) 4 5 (12:10) 2.78 (12:10) 0 0 0 0 0
15-01-2020 8.4 (17:00) -1 (-00:0) 3.7 6.11 (11:40) 3.33 (11:40) 0 0 0 0 0
14-01-2020 6 (15:50) -2.4 (-00:0) 1.8 4.72 (16:10) 2.5 (16:50) 0 0 0 0 0
13-01-2020 7.1 (16:50) -2.2 (-00:0) 2.4 4.44 (16:00) 2.78 (16:00) 0 0 0 0 0
12-01-2020 12.6 (17:00) -2.5 (-00:0) 5.1 5.56 (20:30) 2.5 (16:00) 0 0 0 0 0
11-01-2020 11.2 (16:40) 0.4 (00:00) 5.8 5.56 (01:50) 2.78 (01:30) 0 0 0 0 0
10-01-2020 8.6 (16:50) 3.5 (00:00) 6.1 6.11 (07:40) 3.33 (07:40) 0.6 0.4 0 0.2 0
09-01-2020 4.6 (13:10) 2.6 (00:00) 3.6 5.83 (16:10) 3.33 (16:20) 0 0 0 0 0
08-01-2020 16.1 (14:40) 3.4 (00:00) 9.8 6.39 (20:40) 4.17 (20:50) 0 0 0 0 0
07-01-2020 15.9 (16:40) -0.4 (00:00) 7.7 4.17 (05:30) 2.5 (05:30) 0 0 0 0 0
06-01-2020 9.7 (15:50) -3 (-00:0) 3.3 3.89 (19:10) 2.5 (19:10) 0 0 0 0 0
05-01-2020 13.6 (16:10) 1.7 (00:00) 7.7 5.56 (08:50) 2.78 (08:20) 0 0 0 0 0
04-01-2020 9.2 (13:50) 4.5 (00:00) 6.8 5.56 (19:30) 3.06 (16:40) 0.6 0.6 0 0 0
03-01-2020 8.1 (16:40) -2 (-00:0) 3.1 6.11 (13:30) 2.78 (13:30) 0.6 0 0 0 0.6
02-01-2020 0.5 (17:00) -2.4 (-00:0) -1 3.06 (22:30) 1.67 (22:30) 0 0 0 0 0
01-01-2020 5.6 (14:10) -4.9 (-00:0) 0.3 4.17 (17:20) 2.5 (16:10) 0 0 0 0 0
31-12-2019 0.6 (16:10) -1.8 (-00:0) -0.6 2.5 (12:00) 1.39 (22:10) 0 0 0 0 0
30-12-2019 -- (--) -- (--) -- -- (--) -- (--) -- 0 0 0 --
29-12-2019 5.8 (15:40) -2.5 (-00:0) 1.7 2.5 (13:30) 1.67 (16:40) 0 0 0 0 0
28-12-2019 16.8 (16:20) -2.6 (-00:0) 7.1 4.17 (19:20) 2.22 (19:10) 0 0 0 0 0
27-12-2019 12.4 (16:30) -1.4 (-00:0) 5.5 4.17 (01:10) 2.5 (01:10) 0 0 0 0 0

Gráficas

Temp. máximas Temp. mínimas Temp. medias Precipitaciones Rachas de viento máximas Velocidades máximas media en intervalos de 10 minutos

Datos horarios

Fecha y hora oficial Temperatura (ºC) Velocidad del viento (km/h) Dirección del viento Racha (km/h) Dirección de racha Precipitación (mm) Presión (hPa) Tendencia (hPa) Humedad (%)
2020-01-25 23:00:00 6.1 3 Sur 5 Sur 0 -- -- 97
2020-01-25 22:00:00 6.2 3 Sur 5 Sur 0 -- -- 96
2020-01-25 21:00:00 6.6 0 Calma 6 Sur 0.2 -- -- 95
2020-01-25 20:00:00 7 2 Sur 7 Norte 0.6 -- -- 95
2020-01-25 19:00:00 7.4 4 Norte 6 Este 0.2 -- -- 95
2020-01-25 18:00:00 7.6 4 Este 9 Este 0 -- -- 92
2020-01-25 17:00:00 7.8 8 Este 14 Este 0 -- -- 92
2020-01-25 16:00:00 7.5 2 Sudoeste 5 Sur 0 -- -- 88
2020-01-25 15:00:00 7.3 3 Sur 7 Sur 0 -- -- 89
2020-01-25 14:00:00 6.4 3 Sur 6 Sur 0 -- -- 91
2020-01-25 13:00:00 5.9 0 Calma 5 Sur 0 -- -- 95
2020-01-25 12:00:00 5 3 Sudoeste 8 Sur 0.6 -- -- 97
2020-01-25 11:00:00 4.6 4 Sur 7 Sur 0 -- -- 97
2020-01-25 10:00:00 3.9 5 Sur 7 Sur 0 -- -- 96
2020-01-25 09:00:00 3.6 3 Sur 8 Sur 0 -- -- 97
2020-01-25 08:00:00 3.5 5 Sur 9 Sur 0 -- -- 97
2020-01-25 07:00:00 3.6 5 Sur 9 Sur 0 -- -- 96
2020-01-25 06:00:00 3.7 4 Sudoeste 10 Sur 0 -- -- 96
2020-01-25 05:00:00 4 4 Sur 9 Sur 0 -- -- 95
2020-01-25 04:00:00 4.2 4 Sur 8 Sur 0 -- -- 94
2020-01-25 03:00:00 4.5 5 Sur 10 Sur 0 -- -- 93
2020-01-25 02:00:00 5 3 Sur 9 Sur 0 -- -- 93
2020-01-25 01:00:00 5.1 4 Sur 11 Sudoeste 0 -- -- 92
2020-01-25 00:00:00 5.3 5 Sur 8 Sur 0 -- -- 92
2020-01-24 23:00:00 5.4 3 Sur 6 Sur 0 -- -- 92
2020-01-24 22:00:00 5.5 3 Sur 8 Sur 0 -- -- 91
2020-01-24 21:00:00 5.7 3 Sur 9 Sur 0 -- -- 90
2020-01-24 20:00:00 5.9 3 Sudoeste 9 Sur 0 -- -- 90
2020-01-24 19:00:00 5.9 3 Sur 10 Sudoeste 0 -- -- 89
2020-01-24 18:00:00 6.1 4 Sur 7 Sudoeste 0 -- -- 88
2020-01-24 17:00:00 6.4 2 Sur 8 Sur 0 -- -- 87
2020-01-24 16:00:00 6.4 5 Sur 11 Sur 0 -- -- 87
2020-01-24 15:00:00 5.9 5 Sur 11 Sudeste 0 -- -- 89
2020-01-24 14:00:00 5.6 3 Sudeste 13 Sur 0 -- -- 90
2020-01-24 13:00:00 5.2 6 Sur 12 Sur 0 -- -- 89
2020-01-24 12:00:00 4.6 5 Sur 8 Sur 0 -- -- 92
2020-01-24 11:00:00 4 3 Sudoeste 10 Sur 0 -- -- 93
2020-01-24 10:00:00 3.5 5 Sur 10 Sur 0 -- -- 96
2020-01-24 09:00:00 3.2 5 Sur 10 Sur 0 -- -- 96
2020-01-24 08:00:00 3.3 0 Calma 8 Sudeste 0 -- -- 96
2020-01-24 07:00:00 3.4 5 Sur 10 Sur 0 -- -- 95
2020-01-24 06:00:00 3.7 3 Sur 7 Sudeste 0 -- -- 95
2020-01-24 05:00:00 3.8 5 Sur 11 Sudoeste 0 -- -- 95
2020-01-24 04:00:00 3.8 4 Sur 10 Sur 0 -- -- 94
2020-01-24 03:00:00 3.7 3 Sur 8 Sur 0 -- -- 94
2020-01-24 02:00:00 3.8 2 Sur 8 Sur 0 -- -- 94
2020-01-24 01:00:00 4.1 5 Sudeste 8 Sudeste 0 -- -- 93
2020-01-24 00:00:00 4.1 4 Sudoeste 7 Sur 0 -- -- 91
2020-01-23 23:00:00 4.6 3 Sudoeste 10 Sudeste 0 -- -- 90
2020-01-23 22:00:00 5 4 Sur 12 Sudoeste 0 -- -- 89
2020-01-23 21:00:00 5.2 5 Sur 13 Sudoeste 0 -- -- 88
2020-01-23 20:00:00 5.5 4 Sur 15 Sudoeste 0 -- -- 87
2020-01-23 19:00:00 6.1 5 Sur 10 Sur 0 -- -- 85
2020-01-23 18:00:00 6.6 7 Este 22 Este 0 -- -- 87
2020-01-23 17:00:00 7 12 Este 23 Este 0 -- -- 85
2020-01-23 16:00:00 7.5 0 Calma 12 Este 0 -- -- 79
2020-01-23 15:00:00 6.9 4 Nordeste 12 Nordeste 0 -- -- 81
2020-01-23 14:00:00 6.7 4 Sudoeste 9 Oeste 0 -- -- 81
2020-01-23 13:00:00 5.3 0 Calma 6 Noroeste 0 -- -- 86
2020-01-23 12:00:00 4.8 2 Nordeste 11 Sur 0 -- -- 90
2020-01-23 11:00:00 3.1 5 Sudoeste 10 Sur 0 -- -- 92
2020-01-23 10:00:00 2.1 3 Este 9 Sudeste 0 -- -- 93
2020-01-23 09:00:00 2 4 Sur 9 Sur 0 -- -- 94
2020-01-23 08:00:00 1.7 5 Sur 8 Sur 0 -- -- 96
2020-01-23 07:00:00 1.6 3 Sudeste 8 Sur 0 -- -- 97
2020-01-23 06:00:00 1.3 2 Sudoeste 8 Sudeste 0 -- -- 97
2020-01-23 05:00:00 0.9 4 Sur 8 Sur 0 -- -- 97
2020-01-23 04:00:00 0.3 3 Sudeste 6 Sur 0 -- -- 96
2020-01-23 03:00:00 0.9 3 Sur 8 Sudeste 0 -- -- 95
2020-01-23 02:00:00 1.6 5 Sudeste 8 Sudeste 0 -- -- 94
2020-01-23 01:00:00 2.3 4 Sur 8 Sudeste 0 -- -- 94
2020-01-23 00:00:00 2.7 3 Sur 8 Sur 0 -- -- 94
2020-01-22 23:00:00 3 3 Sudeste 9 Sudeste 0 -- -- 93
2020-01-22 22:00:00 2.9 4 Sur 12 Sur 0 -- -- 93
2020-01-22 21:00:00 2.8 5 Sur 9 Sur 0 -- -- 93
2020-01-22 20:00:00 3.6 4 Sur 12 Sur 0 -- -- 91
2020-01-22 19:00:00 4.9 5 Sur 11 Sur 0 -- -- 87
2020-01-22 18:00:00 6 5 Sudoeste 10 Sur 0 -- -- 84
2020-01-22 17:00:00 7.1 6 Sur 14 Sur 0 -- -- 79
2020-01-22 16:00:00 6.9 4 Sudoeste 11 Sur 0 -- -- 81
2020-01-22 15:00:00 6.9 7 Sur 12 Sudoeste 0 -- -- 83
2020-01-22 14:00:00 6 4 Sudoeste 9 Sudoeste 0 -- -- 87
2020-01-22 13:00:00 5.2 5 Sudoeste 8 Sur 0 -- -- 88
2020-01-22 12:00:00 3.7 4 Sur 10 Sudeste 0 -- -- 94
2020-01-22 11:00:00 3.1 4 Sur 8 Sur 0 -- -- 96
2020-01-22 10:00:00 2.1 4 Sur 8 Sur 0 -- -- 97
2020-01-22 09:00:00 1.5 2 Sur 8 Sur 0 -- -- 96
2020-01-22 08:00:00 1.5 3 Sur 7 Sudeste 0 -- -- 96
2020-01-22 07:00:00 1.7 0 Calma 12 Sudoeste 0 -- -- 96
2020-01-22 06:00:00 1.8 5 Sur 12 Sur 0 -- -- 96
2020-01-22 05:00:00 1.7 4 Sur 10 Sudoeste 0.4 -- -- 96
2020-01-22 04:00:00 1.8 5 Sur 6 Sur 0.8 -- -- 95
2020-01-22 03:00:00 2.2 5 Sur 12 Sur 0 -- -- 94
2020-01-22 02:00:00 2.1 6 Sudoeste 13 Sur 0 -- -- 94
2020-01-22 01:00:00 2.2 6 Sudoeste 15 Sur 0 -- -- 94
2020-01-22 00:00:00 2 6 Sudoeste 17 Sudoeste 0 -- -- 93
2020-01-21 23:00:00 2 6 Sudoeste 17 Sudoeste 0 -- -- 93
2020-01-21 22:00:00 2 11 Sudoeste 21 Sudoeste 0.2 -- -- 93
2020-01-21 21:00:00 1.5 9 Sudoeste 18 Sudoeste 0 -- -- 94
2020-01-21 20:00:00 1.6 11 Sudoeste 21 Sudoeste 0 -- -- 94
2020-01-21 19:00:00 1.1 9 Sudoeste 16 Sudoeste 0 -- -- 97
2020-01-21 18:00:00 0.7 7 Sur 13 Sudoeste 0.2 -- -- 97
2020-01-21 17:00:00 0.6 6 Sur 14 Sudoeste 1.4 -- -- 97
2020-01-21 16:00:00 0.6 4 Sudoeste 9 Sur 3.2 -- -- 97
2020-01-21 15:00:00 0.4 4 Sur 12 Sudoeste 2.8 -- -- 96
2020-01-21 14:00:00 0.7 6 Sur 12 Sudoeste 2 -- -- 94
2020-01-21 13:00:00 1.9 4 Oeste 12 Sudoeste 1.2 -- -- 92
2020-01-21 12:00:00 2.3 6 Sudoeste 16 Sur 0.4 -- -- 93
2020-01-21 11:00:00 1.7 8 Sudoeste 17 Oeste 0.4 -- -- 93
2020-01-21 10:00:00 2.3 6 Oeste 14 Sudoeste 0.2 -- -- 87
2020-01-21 09:00:00 2.5 6 Sudoeste 21 Sudoeste 0 -- -- 80
2020-01-21 08:00:00 2.3 10 Sudoeste 24 Sudoeste 0 -- -- 78
2020-01-21 07:00:00 1.8 9 Sudoeste 21 Sudoeste 0 -- -- 81
2020-01-21 06:00:00 1.9 10 Sudoeste 21 Oeste 0 -- -- 76
2020-01-21 05:00:00 1.7 9 Sudoeste 24 Oeste 0 -- -- 75
2020-01-21 04:00:00 1.6 8 Oeste 18 Oeste 0 -- -- 74
2020-01-21 03:00:00 1.5 8 Sudoeste 16 Noroeste 0 -- -- 75
2020-01-21 02:00:00 1.5 7 Oeste 17 Oeste 0 -- -- 75
2020-01-21 01:00:00 1.8 6 Oeste 15 Oeste 0 -- -- 77
2020-01-21 00:00:00 2 8 Sudoeste 19 Oeste 0 -- -- 77
2020-01-20 23:00:00 1.5 9 Sudoeste 18 Sudoeste 0 -- -- 78
2020-01-20 22:00:00 0.7 6 Sudoeste 15 Sudoeste 0 -- -- 79
2020-01-20 21:00:00 0.7 6 Oeste 17 Oeste 0 -- -- 78
2020-01-20 20:00:00 0.9 7 Oeste 17 Noroeste 0 -- -- 75
2020-01-20 19:00:00 1.4 6 Oeste 20 Noroeste 0 -- -- 71
2020-01-20 18:00:00 2 12 Noroeste 22 Noroeste 0 -- -- 66
2020-01-20 17:00:00 2.6 8 Noroeste 21 Oeste 0 -- -- 63
2020-01-20 16:00:00 2.8 7 Noroeste 17 Oeste 0 -- -- 64
2020-01-20 15:00:00 2.6 10 Noroeste 28 Noroeste 0 -- -- 62
2020-01-20 14:00:00 2.8 12 Noroeste 26 Noroeste 0 -- -- 61
2020-01-20 13:00:00 3.1 8 Noroeste 21 Oeste 0 -- -- 62
2020-01-20 12:00:00 1.9 9 Noroeste 23 Noroeste 0 -- -- 64
2020-01-20 11:00:00 1.5 8 Noroeste 26 Noroeste 0 -- -- 65
2020-01-20 10:00:00 0.6 7 Noroeste 25 Noroeste 0 -- -- 67
2020-01-20 09:00:00 0.3 8 Norte 22 Norte 0 -- -- 70
2020-01-20 08:00:00 0.4 6 Noroeste 19 Noroeste 0 -- -- 70
2020-01-20 07:00:00 0.6 6 Norte 24 Noroeste 0 -- -- 71
2020-01-20 06:00:00 0.9 10 Norte 30 Norte 0 -- -- 69
2020-01-20 05:00:00 1.2 13 Norte 28 Norte 0 -- -- 67
2020-01-20 04:00:00 1.5 10 Norte 24 Norte 0 -- -- 66
2020-01-20 03:00:00 1.5 8 Noroeste 18 Noroeste 0 -- -- 65
2020-01-20 02:00:00 1.6 4 Noroeste 22 Norte 0 -- -- 66
2020-01-20 01:00:00 2 7 Norte 16 Norte 0 -- -- 65
2020-01-20 00:00:00 2.4 7 Norte 24 Norte 0 -- -- 63
2020-01-19 23:00:00 2.9 9 Norte 27 Norte 0 -- -- 63
2020-01-19 22:00:00 3.4 13 Norte 27 Norte 0 -- -- 58
2020-01-19 21:00:00 3.2 6 Norte 21 Norte 0 -- -- 60
2020-01-19 20:00:00 3.6 8 Norte 26 Norte 0 -- -- 63
2020-01-19 19:00:00 4.1 12 Norte 39 Noroeste 0 -- -- 63
2020-01-19 18:00:00 4.5 13 Noroeste 33 Noroeste 0 -- -- 60
2020-01-19 17:00:00 5.8 16 Norte 39 Noroeste 0 -- -- 56
2020-01-19 16:00:00 6.6 17 Norte 48 Norte 0 -- -- 57
2020-01-19 15:00:00 6.9 17 Norte 36 Norte 0 -- -- 58
2020-01-19 14:00:00 7 15 Norte 36 Norte 0 -- -- 62
2020-01-19 13:00:00 6.4 13 Norte 32 Norte 0 -- -- 66
2020-01-19 12:00:00 5.5 11 Norte 29 Noroeste 0 -- -- 70
2020-01-19 11:00:00 5.6 10 Noroeste 23 Norte 0 -- -- 74
2020-01-19 10:00:00 5.4 10 Noroeste 23 Noroeste 0 -- -- 77
2020-01-19 09:00:00 5.3 10 Noroeste 27 Norte 0 -- -- 76
2020-01-19 08:00:00 5.5 10 Norte 29 Norte 0.2 -- -- 82
2020-01-19 07:00:00 5.6 5 Noroeste 22 Oeste 0 -- -- 92
2020-01-19 06:00:00 5.5 10 Noroeste 27 Oeste 0.2 -- -- 93
2020-01-19 05:00:00 4.9 7 Oeste 17 Oeste 0.4 -- -- 97
2020-01-19 04:00:00 4.2 5 Sur 10 Sudoeste 0.8 -- -- 96
2020-01-19 03:00:00 4 3 Sur 8 Sur -- -- -- 95
2020-01-19 02:00:00 3.9 0 Calma 10 Sur 0.2 -- -- 94
2020-01-19 01:00:00 3.9 3 Sur 6 Sudoeste 0 -- -- 94
2020-01-19 00:00:00 3.8 0 Calma 14 Sur 0 -- -- 92
2020-01-18 23:00:00 3.9 6 Sudoeste 13 Sudoeste 0 -- -- 91
2020-01-18 22:00:00 4.6 8 Sudoeste 15 Sudoeste 1 -- -- 93
2020-01-18 21:00:00 5.4 2 Sudeste 16 Noroeste 3.4 -- -- 90
2020-01-18 20:00:00 6 12 Noroeste 37 Norte 2.6 -- -- 91
2020-01-18 19:00:00 7 9 Este 23 Este 1.6 -- -- 92
2020-01-18 18:00:00 7.9 3 Sudeste 7 Sudeste 0.4 -- -- 87
2020-01-18 17:00:00 8.6 4 Nordeste 24 Nordeste 0 -- -- 75
2020-01-18 16:00:00 9.3 16 Nordeste 27 Nordeste 0 -- -- 71
2020-01-18 15:00:00 8.8 21 Nordeste 31 Nordeste 0 -- -- 73
2020-01-18 14:00:00 8.1 12 Nordeste 19 Este 0 -- -- 74
2020-01-18 13:00:00 6.9 13 Nordeste 20 Nordeste 0 -- -- 77
2020-01-18 12:00:00 6.2 9 Nordeste 14 Nordeste 0 -- -- 79
2020-01-18 11:00:00 4.6 9 Nordeste 14 Nordeste 0 -- -- 85
2020-01-18 10:00:00 1.9 2 Sur 7 Sudoeste 0 -- -- 92
2020-01-18 09:00:00 1.6 0 Calma 5 Noroeste 0 -- -- 89
2020-01-18 08:00:00 2 0 Calma 6 Nordeste 0 -- -- 89
2020-01-18 07:00:00 1.6 2 Sudoeste 7 Sudoeste 0 -- -- 89
2020-01-18 06:00:00 1.7 3 Oeste 10 Este 0 -- -- 89
2020-01-18 05:00:00 1.4 3 Este 8 Sur 0 -- -- 89
2020-01-18 04:00:00 1 3 Sur 6 Sur 0 -- -- 89
2020-01-18 03:00:00 0.8 3 Sur 9 Sudoeste 0 -- -- 88
2020-01-18 02:00:00 0.9 3 Nordeste 5 Noroeste 0 -- -- 87
2020-01-18 01:00:00 0.5 2 Sudeste 9 Sudeste 0 -- -- 86
2020-01-18 00:00:00 1.5 4 Sur 10 Sudeste 0 -- -- 83
2020-01-17 23:00:00 2.3 5 Sudeste 10 Sur 0 -- -- 82
2020-01-17 22:00:00 3.7 6 Sur 10 Sur 0 -- -- 80
2020-01-17 21:00:00 5.3 2 Sudoeste 8 Sudeste 0 -- -- 77
2020-01-17 20:00:00 7.3 2 Sur 18 Noroeste 0 -- -- 71
2020-01-17 19:00:00 8.2 11 Oeste 19 Noroeste 0 -- -- 66
2020-01-17 18:00:00 9.5 9 Oeste 17 Oeste 0 -- -- 59
2020-01-17 17:00:00 10.9 9 Oeste 26 Noroeste 0 -- -- 49
2020-01-17 16:00:00 11.6 17 Oeste 36 Oeste 0 -- -- 48
2020-01-17 15:00:00 11.7 13 Oeste 38 Oeste 0 -- -- 50
2020-01-17 14:00:00 11.8 18 Oeste 37 Oeste 0 -- -- 51
2020-01-17 13:00:00 10.5 20 Oeste 48 Oeste 0.2 -- -- 58
2020-01-17 12:00:00 10.6 17 Oeste 31 Oeste 0 -- -- 66
2020-01-17 11:00:00 9.7 8 Oeste 22 Sudoeste 0 -- -- 73
2020-01-17 10:00:00 8.2 7 Noroeste 31 Sudoeste 0 -- -- 81
2020-01-17 09:00:00 8.1 12 Sudoeste 26 Sudoeste 0.2 -- -- 81
2020-01-17 08:00:00 4.5 4 Sur 7 Sudeste 0 -- -- 89
2020-01-17 07:00:00 4.4 2 Nordeste 4 Sur 0 -- -- 89
2020-01-17 06:00:00 4.5 4 Sur 9 Nordeste 0 -- -- 88
2020-01-17 05:00:00 4.6 6 Sur 13 Sur 0 -- -- 85
2020-01-17 04:00:00 5.8 5 Sur 11 Sudoeste 0 -- -- 84
2020-01-17 03:00:00 6.8 5 Norte 15 Norte 0 -- -- 81
2020-01-17 02:00:00 8.7 7 Nordeste 23 Sudoeste 0 -- -- 72
2020-01-17 01:00:00 9 13 Sur 28 Sur 0 -- -- 72
2020-01-17 00:00:00 5.5 2 Oeste 9 Sudoeste 0 -- -- 94
2020-01-16 23:00:00 5 4 Nordeste 13 Sudoeste 0 -- -- 97
2020-01-16 22:00:00 3.9 3 Nordeste 7 Sur 0 -- -- 95
2020-01-16 21:00:00 3.8 2 Sudeste 8 Sudoeste 0 -- -- 94
2020-01-16 20:00:00 4.1 0 Calma 8 Sudeste 0 -- -- 93
2020-01-16 19:00:00 4.9 5 Sur 9 Sudoeste 0 -- -- 92
2020-01-16 18:00:00 6.4 0 Calma 6 Sur 0 -- -- 87
2020-01-16 17:00:00 7.6 3 Sudeste 12 Sur 0 -- -- 85
2020-01-16 16:00:00 7.7 4 Sudeste 10 Sudeste 0 -- -- 83
2020-01-16 15:00:00 9 5 Este 17 Nordeste 0 -- -- 79
2020-01-16 14:00:00 6.6 3 Oeste 8 Sur 0 -- -- 89
2020-01-16 13:00:00 6 3 Noroeste 18 Este 0 -- -- 91
2020-01-16 12:00:00 3.9 6 Este 15 Este 0 -- -- 100
2020-01-16 11:00:00 2.3 4 Sur 8 Sudoeste 0 -- -- 99
2020-01-16 10:00:00 0.2 3 Este 9 Sudeste 0 -- -- 99
2020-01-16 09:00:00 -0.6 5 Noroeste 8 Oeste 0 -- -- 99
2020-01-16 08:00:00 -1.1 2 Sudeste 8 Oeste 0 -- -- 97
2020-01-16 07:00:00 -1.2 4 Sudoeste 7 Sudeste 0 -- -- 97
2020-01-16 06:00:00 -1.1 3 Sudoeste 8 Sudeste 0 -- -- 97
2020-01-16 05:00:00 -0.9 4 Sur 6 Sur 0 -- -- 97
2020-01-16 04:00:00 -0.5 0 Calma 9 Sudeste 0 -- -- 97
2020-01-16 03:00:00 -0.8 4 Sudeste 9 Sudoeste 0 -- -- 96
2020-01-16 02:00:00 -0.4 3 Sur 9 Sur 0 -- -- 96
2020-01-16 01:00:00 -0.2 3 Sur 10 Sudoeste 0 -- -- 96
2020-01-16 00:00:00 0.2 3 Sudeste 7 Sur 0 -- -- 96
2020-01-15 23:00:00 0.7 3 Sur 10 Sudoeste 0 -- -- 95
2020-01-15 22:00:00 1.4 3 Sur 8 Sudoeste 0 -- -- 93
2020-01-15 21:00:00 2.4 3 Este 6 Sudeste 0 -- -- 92
2020-01-15 20:00:00 3.6 4 Sur 8 Sudeste 0 -- -- 89
2020-01-15 19:00:00 5.2 4 Sudoeste 8 Sudoeste 0 -- -- 86
2020-01-15 18:00:00 6.9 2 Norte 13 Nordeste 0 -- -- 81
2020-01-15 17:00:00 8.4 4 Noroeste 7 Noroeste 0 -- -- 76
2020-01-15 16:00:00 8.2 3 Sudeste 18 Norte 0 -- -- 78
2020-01-15 15:00:00 7.2 7 Norte 15 Norte 0 -- -- 77
2020-01-15 14:00:00 7 7 Nordeste 15 Este 0 -- -- 79
2020-01-15 13:00:00 5 3 Nordeste 12 Nordeste 0 -- -- 86
2020-01-15 12:00:00 4.1 10 Nordeste 22 Este 0 -- -- 88
2020-01-15 11:00:00 1.7 2 Sudeste 6 Sudeste 0 -- -- 94
2020-01-15 10:00:00 1 2 Norte 11 Nordeste 0 -- -- 94
2020-01-15 09:00:00 0.7 4 Norte 12 Norte 0 -- -- 96
2020-01-15 08:00:00 -0.1 5 Norte 12 Norte 0 -- -- 96
2020-01-15 07:00:00 0 4 Sudeste 16 Norte 0 -- -- 92
2020-01-15 06:00:00 0.6 5 Norte 14 Nordeste 0 -- -- 95
2020-01-15 05:00:00 -0.5 3 Norte 12 Noroeste 0 -- -- 96
2020-01-15 04:00:00 -0.6 2 Sudeste 7 Sudeste 0 -- -- 96
2020-01-15 03:00:00 -0.4 3 Sudeste 9 Norte 0 -- -- 96
2020-01-15 02:00:00 -0.8 3 Noroeste 6 Noroeste 0 -- -- 97
2020-01-15 01:00:00 -0.7 3 Sudeste 9 Nordeste 0 -- -- 96
2020-01-15 00:00:00 -1 3 Nordeste 8 Sudoeste 0 -- -- 97
2020-01-14 23:00:00 -0.9 3 Sur 12 Sudoeste 0 -- -- 97
2020-01-14 22:00:00 -1 3 Sudeste 9 Nordeste 0 -- -- 96
2020-01-14 21:00:00 -0.7 3 Sudoeste 5 Este 0 -- -- 95
2020-01-14 20:00:00 -0.2 0 Calma 9 Norte 0 -- -- 94
2020-01-14 19:00:00 0.3 6 Norte 12 Norte 0 -- -- 92
2020-01-14 18:00:00 2.3 5 Norte 16 Nordeste 0 -- -- 85
2020-01-14 17:00:00 4.6 8 Norte 17 Norte 0 -- -- 80
2020-01-14 16:00:00 6 8 Norte 16 Norte 0 -- -- 78
2020-01-14 15:00:00 5.5 5 Norte 13 Norte 0 -- -- 78
2020-01-14 14:00:00 5.6 6 Norte 13 Norte 0 -- -- 78
2020-01-14 13:00:00 2.9 4 Norte 6 Oeste -- -- -- 90
2020-01-14 12:00:00 0.2 3 Norte 10 Norte 0 -- -- 97
2020-01-14 11:00:00 -0.5 4 Norte 11 Norte 0 -- -- 97
2020-01-14 10:00:00 -1.1 2 Norte 6 Norte 0 -- -- 97
2020-01-14 09:00:00 -2.3 3 Sur 5 Sur 0 -- -- 97
2020-01-14 08:00:00 -2.3 0 Calma 5 Norte 0 -- -- 95
2020-01-14 07:00:00 -2 0 Calma 4 Noroeste 0 -- -- 95
2020-01-14 06:00:00 -1.7 0 Calma 9 Sur 0 -- -- 95
2020-01-14 05:00:00 -1.5 4 Sudoeste 6 Sudoeste 0 -- -- 96
2020-01-14 04:00:00 -1.9 2 Norte 7 Nordeste 0 -- -- 95
2020-01-14 03:00:00 -1.9 4 Sur 8 Sur 0 -- -- 95
2020-01-14 02:00:00 -2.2 0 Calma 7 Sudeste 0 -- -- 94
2020-01-14 01:00:00 -2 2 Sudeste 6 Sur 0 -- -- 94
2020-01-14 00:00:00 -1.7 3 Sudeste 10 Sur 0 -- -- 94
2020-01-13 23:00:00 -1.5 4 Sur 8 Sudeste 0 -- -- 92
2020-01-13 22:00:00 -0.9 0 Calma 7 Sur 0 -- -- 91
2020-01-13 21:00:00 0.5 4 Sur 8 Norte 0 -- -- 88
2020-01-13 20:00:00 1.8 2 Norte 8 Sur 0 -- -- 87
2020-01-13 19:00:00 3.4 3 Nordeste 10 Norte 0 -- -- 81
2020-01-13 18:00:00 5.4 5 Norte 7 Norte 0 -- -- 76
2020-01-13 17:00:00 7.1 3 Nordeste 14 Nordeste 0 -- -- 69
2020-01-13 16:00:00 6.6 10 Nordeste 16 Nordeste 0 -- -- 70
2020-01-13 15:00:00 6.7 4 Nordeste 9 Este 0 -- -- 68
2020-01-13 14:00:00 5.9 6 Sur 10 Sudeste 0 -- -- 69
2020-01-13 13:00:00 4.5 2 Nordeste 7 Norte 0 -- -- 75
2020-01-13 12:00:00 3.2 4 Nordeste 8 Este 0 -- -- 81
2020-01-13 11:00:00 0.9 3 Sur 7 Sur 0 -- -- 92
2020-01-13 10:00:00 -1 4 Sur 9 Sur 0 -- -- 94
2020-01-13 09:00:00 -2 0 Calma 7 Sudoeste 0 -- -- 94
2020-01-13 08:00:00 -2.1 3 Sur 9 Sudeste 0 -- -- 94
2020-01-13 07:00:00 -2.1 3 Sudoeste 5 Sudeste 0 -- -- 93
2020-01-13 06:00:00 -1.9 0 Calma 4 Sur 0 -- -- 93
2020-01-13 05:00:00 -1.7 2 Sudoeste 6 Sur 0 -- -- 92
2020-01-13 04:00:00 -1.2 2 Sudeste 5 Sur 0 -- -- 91
2020-01-13 03:00:00 -0.4 0 Calma 3 Sudeste 0 -- -- 87
2020-01-13 02:00:00 0.7 0 Calma 6 Sur 0 -- -- 86
2020-01-13 01:00:00 1.6 0 Calma 6 Sur 0 -- -- 83
2020-01-13 00:00:00 2.5 3 Sur 11 Sur 0 -- -- 82
2020-01-12 23:00:00 3.7 3 Sudoeste 13 Sur 0 -- -- 81
2020-01-12 22:00:00 5.3 4 Sur 11 Sur 0 -- -- 74
2020-01-12 21:00:00 5.6 6 Sur 20 Sudoeste 0 -- -- 72
2020-01-12 20:00:00 6.3 7 Sur 14 Sur 0 -- -- 68
2020-01-12 19:00:00 7.4 6 Sur 16 Sudoeste 0 -- -- 65
2020-01-12 18:00:00 9.7 4 Sudoeste 10 Sudoeste 0 -- -- 57
2020-01-12 17:00:00 12.6 4 Oeste 14 Sudoeste 0 -- -- 47
2020-01-12 16:00:00 12.2 9 Oeste 13 Oeste 0 -- -- 51
2020-01-12 15:00:00 11.5 7 Oeste 13 Oeste 0 -- -- 57
2020-01-12 14:00:00 10.2 6 Oeste 12 Oeste 0 -- -- 63
2020-01-12 13:00:00 7.7 4 Noroeste 10 Oeste 0 -- -- 66
2020-01-12 12:00:00 5.1 5 Noroeste 9 Oeste 0 -- -- 59
2020-01-12 11:00:00 2.8 4 Sudoeste 10 Sur 0 -- -- 64
2020-01-12 10:00:00 -0.8 4 Sur 10 Sudeste 0 -- -- 93
2020-01-12 09:00:00 -2.5 2 Noroeste 6 Sudeste 0 -- -- 86
2020-01-12 08:00:00 -2 4 Sudeste 6 Oeste 0 -- -- 84
2020-01-12 07:00:00 -1.3 2 Sudoeste 11 Sudoeste 0 -- -- 84
2020-01-12 06:00:00 -0.4 4 Sur 15 Noroeste 0 -- -- 80
2020-01-12 05:00:00 -0.9 4 Noroeste 11 Sur 0 -- -- 82
2020-01-12 04:00:00 -1 5 Sur 13 Sur 0 -- -- 84
2020-01-12 03:00:00 -0.4 3 Sur 6 Sudoeste 0 -- -- 82
2020-01-12 02:00:00 0.5 2 Sudoeste 8 Sur 0 -- -- 79
2020-01-12 01:00:00 1.2 3 Sur 8 Sudeste 0 -- -- 78
2020-01-12 00:00:00 1.6 2 Norte 11 Sur 0 -- -- 80
2020-01-11 23:00:00 2.8 4 Sudoeste 10 Sudoeste 0 -- -- 77
2020-01-11 22:00:00 3.6 5 Sur 15 Sudoeste 0 -- -- 76
2020-01-11 21:00:00 4.4 7 Sur 15 Sudoeste 0 -- -- 78
2020-01-11 20:00:00 4.8 7 Sur 12 Sudoeste 0 -- -- 80
2020-01-11 19:00:00 5.9 5 Sur 13 Sur 0 -- -- 80
2020-01-11 18:00:00 8.1 4 Sudoeste 7 Oeste 0 -- -- 72
2020-01-11 17:00:00 10.9 4 Oeste 12 Oeste 0 -- -- 63
2020-01-11 16:00:00 10.8 3 Oeste 13 Oeste 0 -- -- 63
2020-01-11 15:00:00 10.2 4 Noroeste 17 Oeste 0 -- -- 63
2020-01-11 14:00:00 9.7 6 Noroeste 17 Noroeste 0 -- -- 65
2020-01-11 13:00:00 9.1 6 Noroeste 12 Noroeste 0 -- -- 66
2020-01-11 12:00:00 7.6 3 Oeste 7 Oeste 0 -- -- 69
2020-01-11 11:00:00 5.1 4 Sur 13 Sur 0 -- -- 77
2020-01-11 10:00:00 2.4 7 Sudoeste 16 Sudoeste 0 -- -- 86
2020-01-11 09:00:00 1.1 8 Sur 13 Sur 0 -- -- 90
2020-01-11 08:00:00 0.8 7 Sur 12 Sudoeste 0 -- -- 92
2020-01-11 07:00:00 0.4 6 Sur 10 Sudeste 0 -- -- 94
2020-01-11 06:00:00 0.9 6 Sur 10 Sudeste 0 -- -- 93
2020-01-11 05:00:00 1.6 6 Sur 9 Sur 0 -- -- 92
2020-01-11 04:00:00 2.6 3 Sur 8 Sur 0 -- -- 89
2020-01-11 03:00:00 4.5 4 Sur 17 Oeste -- -- -- 83
2020-01-11 02:00:00 5.6 9 Oeste 20 Oeste 0 -- -- 82
2020-01-11 01:00:00 5.9 8 Oeste 18 Oeste 0 -- -- 83
2020-01-11 00:00:00 6 8 Oeste 15 Oeste 0 -- -- 84
2020-01-10 23:00:00 6.2 5 Oeste 13 Oeste 0 -- -- 83
2020-01-10 22:00:00 6.4 5 Oeste 14 Oeste 0 -- -- 82
2020-01-10 21:00:00 6.8 10 Oeste 19 Oeste 0 -- -- 81
2020-01-10 20:00:00 6.6 3 Oeste 12 Oeste 0 -- -- 79
2020-01-10 19:00:00 6.5 4 Noroeste 13 Sudoeste 0 -- -- 80
2020-01-10 18:00:00 7.3 9 Noroeste 20 Noroeste 0 -- -- 80
2020-01-10 17:00:00 8.3 8 Noroeste 15 Oeste 0 -- -- 80
2020-01-10 16:00:00 7.9 6 Noroeste 13 Oeste 0 -- -- 80
2020-01-10 15:00:00 8 7 Sudoeste 19 Noroeste 0 -- -- 79
2020-01-10 14:00:00 7.5 10 Noroeste 21 Oeste 0.2 -- -- 81
2020-01-10 13:00:00 8.5 6 Noroeste 16 Noroeste 0 -- -- 72
2020-01-10 12:00:00 6.9 8 Noroeste 18 Oeste 0 -- -- 78
2020-01-10 11:00:00 6.2 3 Oeste 9 Sudoeste 0 -- -- 80
2020-01-10 10:00:00 4.7 5 Sudoeste 11 Sudoeste 0 -- -- 80
2020-01-10 09:00:00 4.5 4 Sur 19 Sudoeste 0 -- -- 81
2020-01-10 08:00:00 5.4 8 Oeste 22 Oeste 0 -- -- 80
2020-01-10 07:00:00 5.5 4 Sudoeste 14 Noroeste 0 -- -- 84
2020-01-10 06:00:00 4.3 3 Sur 8 Sur 0 -- -- 94
2020-01-10 05:00:00 4.1 4 Sur 10 Sudeste 0 -- -- 96
2020-01-10 04:00:00 4.1 4 Sur 12 Sur 0 -- -- 96
2020-01-10 03:00:00 4.3 3 Sur 15 Sudoeste 0 -- -- 97
2020-01-10 02:00:00 3.8 6 Sur 12 Sur 0.2 -- -- 97
2020-01-10 01:00:00 3.7 5 Sudeste 9 Sudeste 0.2 -- -- 96
2020-01-10 00:00:00 3.5 3 Sudeste 7 Sur 0 -- -- 95
2020-01-09 23:00:00 3.7 2 Oeste 7 Sudeste 0 -- -- 96
2020-01-09 22:00:00 3.5 2 Norte 10 Noroeste 0 -- -- 96
2020-01-09 21:00:00 3.5 2 Oeste 13 Norte 0 -- -- 96
2020-01-09 20:00:00 3.6 7 Norte 13 Nordeste 0 -- -- 96
2020-01-09 19:00:00 3.7 6 Nordeste 12 Nordeste 0 -- -- 95
2020-01-09 18:00:00 3.5 6 Sudoeste 15 Nordeste 0 -- -- 94
2020-01-09 17:00:00 4 9 Nordeste 21 Este 0 -- -- 93
2020-01-09 16:00:00 4.5 10 Nordeste 17 Este 0 -- -- 90
2020-01-09 15:00:00 4.5 9 Nordeste 18 Este 0 -- -- 91
2020-01-09 14:00:00 4.3 8 Norte 13 Norte 0 -- -- 90
2020-01-09 13:00:00 4.5 3 Este 9 Sur 0 -- -- 88
2020-01-09 12:00:00 4.1 2 Sudeste 11 Nordeste 0 -- -- 90
2020-01-09 11:00:00 3.7 5 Nordeste 11 Nordeste 0 -- -- 94
2020-01-09 10:00:00 3.3 0 Calma 5 Sudeste 0 -- -- 96
2020-01-09 09:00:00 3.1 2 Sudeste 11 Este 0 -- -- 96
2020-01-09 08:00:00 3.1 5 Este 9 Este 0 -- -- 97
2020-01-09 07:00:00 2.7 2 Sudeste 5 Oeste 0 -- -- 97
2020-01-09 06:00:00 2.6 3 Norte 12 Este 0 -- -- 97
2020-01-09 05:00:00 2.7 8 Nordeste 12 Este 0 -- -- 96
2020-01-09 04:00:00 3 4 Este 11 Este 0 -- -- 97
2020-01-09 03:00:00 3.1 4 Norte 8 Norte 0 -- -- 96
2020-01-09 02:00:00 3.2 3 Nordeste 7 Nordeste 0 -- -- 95
2020-01-09 01:00:00 3.3 4 Norte 9 Nordeste 0 -- -- 94
2020-01-09 00:00:00 3.7 4 Nordeste 7 Este 0 -- -- 94
2020-01-08 23:00:00 3.7 2 Sudeste 6 Sur 0 -- -- 95
2020-01-08 22:00:00 3.4 5 Nordeste 15 Nordeste 0 -- -- 93
2020-01-08 21:00:00 4.2 12 Nordeste 23 Nordeste 0 -- -- 91
2020-01-08 20:00:00 5.7 11 Nordeste 18 Nordeste 0 -- -- 88
2020-01-08 19:00:00 6.8 5 Norte 17 Norte 0 -- -- 84
2020-01-08 18:00:00 8.6 9 Norte 18 Norte 0 -- -- 78
2020-01-08 17:00:00 12 8 Nordeste 22 Este 0 -- -- 69
2020-01-08 16:00:00 15 13 Este 21 Este 0 -- -- 63
2020-01-08 15:00:00 16 4 Norte 9 Norte 0 -- -- 61
2020-01-08 14:00:00 15.6 4 Norte 12 Sudoeste 0 -- -- 63
2020-01-08 13:00:00 14.7 4 Sudoeste 8 Sudoeste 0 -- -- 65
2020-01-08 12:00:00 11.6 2 Norte 9 Sur 0 -- -- 70
2020-01-08 11:00:00 8.6 5 Sur 10 Sur 0 -- -- 78
2020-01-08 10:00:00 4.5 3 Sur 8 Sudoeste 0 -- -- 88
2020-01-08 09:00:00 3.6 2 Sur 13 Sudoeste 0 -- -- 84
2020-01-08 08:00:00 3.9 4 Sur 10 Sudeste 0 -- -- 84
2020-01-08 07:00:00 5 4 Sur 13 Sur 0 -- -- 77
2020-01-08 06:00:00 4.9 6 Sur 15 Sur 0 -- -- 78
2020-01-08 05:00:00 4.4 4 Sur 10 Sur 0 -- -- 78
2020-01-08 04:00:00 5.1 3 Sudeste 14 Sur 0 -- -- 76
2020-01-08 03:00:00 4.6 5 Sur 9 Sudoeste 0 -- -- 79
2020-01-08 02:00:00 5.2 3 Sudoeste 10 Sudoeste 0 -- -- 77
2020-01-08 01:00:00 6 5 Sur 14 Sudoeste 0 -- -- 76
2020-01-08 00:00:00 5.8 9 Sur 14 Sur 0 -- -- 78
2020-01-07 23:00:00 5.8 6 Sur 10 Sur 0 -- -- 80
2020-01-07 22:00:00 6.2 5 Sur 11 Sur 0 -- -- 82
2020-01-07 21:00:00 6.4 6 Sur 12 Sur 0 -- -- 83
2020-01-07 20:00:00 7.7 5 Sur 10 Sudoeste 0 -- -- 80
2020-01-07 19:00:00 9.5 5 Sur 12 Sur 0 -- -- 75
2020-01-07 18:00:00 12.3 6 Sur 10 Sur 0 -- -- 66
2020-01-07 17:00:00 15.5 3 Sudoeste 12 Oeste 0 -- -- 56
2020-01-07 16:00:00 15.7 4 Oeste 11 Noroeste 0 -- -- 53
2020-01-07 15:00:00 14.8 3 Sudoeste 11 Noroeste 0 -- -- 47
2020-01-07 14:00:00 12.8 0 Calma 9 Sur 0 -- -- 45
2020-01-07 13:00:00 9.9 5 Sur 10 Sur 0 -- -- 51
2020-01-07 12:00:00 6.4 2 Este 8 Norte 0 -- -- 67
2020-01-07 11:00:00 3.5 0 Calma 5 Oeste 0 -- -- 73
2020-01-07 10:00:00 0.6 2 Oeste 8 Sur 0 -- -- 82
2020-01-07 09:00:00 0.3 6 Sudoeste 13 Sur 0 -- -- 80
2020-01-07 08:00:00 1.6 5 Oeste 10 Sudoeste 0 -- -- 77
2020-01-07 07:00:00 1.4 4 Sudoeste 13 Oeste 0 -- -- 76
2020-01-07 06:00:00 0.3 7 Sur 15 Sudoeste 0 -- -- 84
2020-01-07 05:00:00 -0.2 8 Sur 14 Sur 0 -- -- 89
2020-01-07 04:00:00 -0.3 8 Sur 13 Sur 0 -- -- 90
2020-01-07 03:00:00 -0.1 5 Sur 10 Sur 0 -- -- 88
2020-01-07 02:00:00 0.7 3 Sur 10 Sur 0 -- -- 86
2020-01-07 01:00:00 1 3 Sur 10 Sur 0 -- -- 85
2020-01-07 00:00:00 1.8 6 Sur 12 Sur 0 -- -- 85
2020-01-06 23:00:00 1.8 6 Sur 13 Sur 0 -- -- 86
2020-01-06 22:00:00 2.2 3 Sur 12 Sur 0 -- -- 85
2020-01-06 21:00:00 3.4 2 Sur 5 Oeste 0 -- -- 81
2020-01-06 20:00:00 5.4 3 Sur 14 Sur 0 -- -- 75
2020-01-06 19:00:00 4.7 6 Sur 12 Sur 0 -- -- 79
2020-01-06 18:00:00 6.8 3 Sudoeste 7 Norte 0 -- -- 70
2020-01-06 17:00:00 9 5 Norte 8 Nordeste 0 -- -- 63
2020-01-06 16:00:00 9.7 2 Norte 6 Este 0 -- -- 56
2020-01-06 15:00:00 8.7 2 Este 10 Norte 0 -- -- 62
2020-01-06 14:00:00 6.6 5 Norte 10 Norte 0 -- -- 68
2020-01-06 13:00:00 6 3 Nordeste 6 Este 0 -- -- 71
2020-01-06 12:00:00 3 2 Nordeste 4 Nordeste 0 -- -- 84
2020-01-06 11:00:00 -0.2 0 Calma 6 Norte 0 -- -- 95
2020-01-06 10:00:00 -2.3 2 Norte 5 Nordeste 0 -- -- 94